sensor_id;sensor_type;location;lat;lon;timestamp;temperature;humidity
33077;DHT22;38790;51.964;5.924;2022-12-07T00:01:21;3.70;99.90
33077;DHT22;38790;51.964;5.924;2022-12-07T00:03:49;3.70;99.90
33077;DHT22;38790;51.964;5.924;2022-12-07T00:06:17;3.60;99.90
33077;DHT22;38790;51.964;5.924;2022-12-07T00:08:44;3.60;99.90
33077;DHT22;38790;51.964;5.924;2022-12-07T00:11:20;3.50;99.90
33077;DHT22;38790;51.964;5.924;2022-12-07T00:13:51;3.40;99.90
33077;DHT22;38790;51.964;5.924;2022-12-07T00:16:20;3.30;99.90
33077;DHT22;38790;51.964;5.924;2022-12-07T00:18:46;3.30;99.90
33077;DHT22;38790;51.964;5.924;2022-12-07T00:23:44;3.10;99.90
33077;DHT22;38790;51.964;5.924;2022-12-07T00:28:38;3.00;99.90
33077;DHT22;38790;51.964;5.924;2022-12-07T00:31:08;3.00;99.90
33077;DHT22;38790;51.964;5.924;2022-12-07T00:33:35;2.90;99.90
33077;DHT22;38790;51.964;5.924;2022-12-07T00:36:05;2.90;99.90
33077;DHT22;38790;51.964;5.924;2022-12-07T00:38:33;3.00;99.90
33077;DHT22;38790;51.964;5.924;2022-12-07T00:41:02;3.00;99.90
33077;DHT22;38790;51.964;5.924;2022-12-07T00:43:29;2.90;99.90
33077;DHT22;38790;51.964;5.924;2022-12-07T00:45:56;2.90;99.90
33077;DHT22;38790;51.964;5.924;2022-12-07T00:48:23;2.90;99.90
33077;DHT22;38790;51.964;5.924;2022-12-07T00:50:49;2.80;99.90
33077;DHT22;38790;51.964;5.924;2022-12-07T00:53:15;2.80;99.90
33077;DHT22;38790;51.964;5.924;2022-12-07T00:55:42;2.80;99.90
33077;DHT22;38790;51.964;5.924;2022-12-07T00:58:08;2.80;99.90
33077;DHT22;38790;51.964;5.924;2022-12-07T01:00:36;2.80;99.90
33077;DHT22;38790;51.964;5.924;2022-12-07T01:03:03;2.70;99.90
33077;DHT22;38790;51.964;5.924;2022-12-07T01:05:29;2.70;99.90
33077;DHT22;38790;51.964;5.924;2022-12-07T01:07:55;2.70;99.90
33077;DHT22;38790;51.964;5.924;2022-12-07T01:10:21;2.70;99.90
33077;DHT22;38790;51.964;5.924;2022-12-07T01:12:48;2.60;99.90
33077;DHT22;38790;51.964;5.924;2022-12-07T01:15:14;2.60;99.90
33077;DHT22;38790;51.964;5.924;2022-12-07T01:17:40;2.60;99.90
33077;DHT22;38790;51.964;5.924;2022-12-07T01:20:07;2.60;99.90
33077;DHT22;38790;51.964;5.924;2022-12-07T01:22:41;2.50;99.90
33077;DHT22;38790;51.964;5.924;2022-12-07T01:25:09;2.50;99.90
33077;DHT22;38790;51.964;5.924;2022-12-07T01:27:36;2.50;99.90
33077;DHT22;38790;51.964;5.924;2022-12-07T01:30:05;2.50;99.90
33077;DHT22;38790;51.964;5.924;2022-12-07T01:32:33;2.50;99.90
33077;DHT22;38790;51.964;5.924;2022-12-07T01:34:59;2.40;99.90
33077;DHT22;38790;51.964;5.924;2022-12-07T01:37:25;2.40;99.90
33077;DHT22;38790;51.964;5.924;2022-12-07T01:39:51;2.40;99.90
33077;DHT22;38790;51.964;5.924;2022-12-07T01:42:18;2.40;99.90
33077;DHT22;38790;51.964;5.924;2022-12-07T01:47:55;2.40;99.90
33077;DHT22;38790;51.964;5.924;2022-12-07T01:50:26;2.30;99.90
33077;DHT22;38790;51.964;5.924;2022-12-07T01:52:53;2.30;99.90
33077;DHT22;38790;51.964;5.924;2022-12-07T01:55:22;2.30;99.90
33077;DHT22;38790;51.964;5.924;2022-12-07T01:57:50;2.30;99.90
33077;DHT22;38790;51.964;5.924;2022-12-07T02:00:18;2.30;99.90
33077;DHT22;38790;51.964;5.924;2022-12-07T02:03:05;2.20;99.90
33077;DHT22;38790;51.964;5.924;2022-12-07T02:05:34;2.20;99.90
33077;DHT22;38790;51.964;5.924;2022-12-07T02:08:01;2.20;99.90
33077;DHT22;38790;51.964;5.924;2022-12-07T02:10:30;2.10;99.90
33077;DHT22;38790;51.964;5.924;2022-12-07T02:13:01;2.10;99.90
33077;DHT22;38790;51.964;5.924;2022-12-07T02:21:46;2.00;99.90
33077;DHT22;38790;51.964;5.924;2022-12-07T02:30:19;2.10;99.90
33077;DHT22;38790;51.964;5.924;2022-12-07T02:38:17;2.00;99.90
33077;DHT22;38790;51.964;5.924;2022-12-07T02:40:52;2.00;99.90
33077;DHT22;38790;51.964;5.924;2022-12-07T02:43:38;2.00;99.90
33077;DHT22;38790;51.964;5.924;2022-12-07T02:46:13;2.00;99.90
33077;DHT22;38790;51.964;5.924;2022-12-07T02:48:41;2.00;99.90
33077;DHT22;38790;51.964;5.924;2022-12-07T02:51:09;1.90;99.90
33077;DHT22;38790;51.964;5.924;2022-12-07T02:53:43;2.00;99.90
33077;DHT22;38790;51.964;5.924;2022-12-07T03:18:18;1.90;99.90
33077;DHT22;38790;51.964;5.924;2022-12-07T03:20:47;2.00;99.90
33077;DHT22;38790;51.964;5.924;2022-12-07T03:23:17;2.00;99.90
33077;DHT22;38790;51.964;5.924;2022-12-07T03:25:49;2.00;99.90
33077;DHT22;38790;51.964;5.924;2022-12-07T03:28:18;2.00;99.90
33077;DHT22;38790;51.964;5.924;2022-12-07T03:30:56;2.00;99.90
33077;DHT22;38790;51.964;5.924;2022-12-07T03:33:41;2.10;99.90
33077;DHT22;38790;51.964;5.924;2022-12-07T03:36:37;2.10;99.90
33077;DHT22;38790;51.964;5.924;2022-12-07T03:39:29;2.10;99.90
33077;DHT22;38790;51.964;5.924;2022-12-07T03:41:59;2.10;99.90
33077;DHT22;38790;51.964;5.924;2022-12-07T03:44:26;2.20;99.90
33077;DHT22;38790;51.964;5.924;2022-12-07T03:52:58;2.30;99.90
33077;DHT22;38790;51.964;5.924;2022-12-07T03:55:35;2.30;99.90
33077;DHT22;38790;51.964;5.924;2022-12-07T03:58:06;2.30;99.90
33077;DHT22;38790;51.964;5.924;2022-12-07T04:00:33;2.40;99.90
33077;DHT22;38790;51.964;5.924;2022-12-07T04:02:59;2.40;99.90
33077;DHT22;38790;51.964;5.924;2022-12-07T04:05:26;2.40;99.90
33077;DHT22;38790;51.964;5.924;2022-12-07T04:07:52;2.40;99.90
33077;DHT22;38790;51.964;5.924;2022-12-07T04:10:18;2.30;99.90
33077;DHT22;38790;51.964;5.924;2022-12-07T04:12:44;2.30;99.90
33077;DHT22;38790;51.964;5.924;2022-12-07T04:15:11;2.30;99.90
33077;DHT22;38790;51.964;5.924;2022-12-07T04:17:37;2.30;99.90
33077;DHT22;38790;51.964;5.924;2022-12-07T04:20:04;2.20;99.90
33077;DHT22;38790;51.964;5.924;2022-12-07T04:22:31;2.10;99.90
33077;DHT22;38790;51.964;5.924;2022-12-07T04:24:57;2.20;99.90
33077;DHT22;38790;51.964;5.924;2022-12-07T04:27:23;2.20;99.90
33077;DHT22;38790;51.964;5.924;2022-12-07T04:29:49;2.10;99.90
33077;DHT22;38790;51.964;5.924;2022-12-07T04:32:15;2.10;99.90
33077;DHT22;38790;51.964;5.924;2022-12-07T04:34:41;2.10;99.90
33077;DHT22;38790;51.964;5.924;2022-12-07T04:37:08;2.10;99.90
33077;DHT22;38790;51.964;5.924;2022-12-07T04:39:34;2.20;99.90
33077;DHT22;38790;51.964;5.924;2022-12-07T04:42:01;2.20;99.90
33077;DHT22;38790;51.964;5.924;2022-12-07T04:44:28;2.20;99.90
33077;DHT22;38790;51.964;5.924;2022-12-07T04:46:55;2.20;99.90
33077;DHT22;38790;51.964;5.924;2022-12-07T04:49:23;2.20;99.90
33077;DHT22;38790;51.964;5.924;2022-12-07T04:51:49;2.20;99.90
33077;DHT22;38790;51.964;5.924;2022-12-07T04:54:16;2.20;99.90
33077;DHT22;38790;51.964;5.924;2022-12-07T04:56:43;2.30;99.90
33077;DHT22;38790;51.964;5.924;2022-12-07T04:59:10;2.30;99.90
33077;DHT22;38790;51.964;5.924;2022-12-07T05:01:36;2.30;99.90
33077;DHT22;38790;51.964;5.924;2022-12-07T05:04:03;2.30;99.90
33077;DHT22;38790;51.964;5.924;2022-12-07T05:06:29;2.30;99.90
33077;DHT22;38790;51.964;5.924;2022-12-07T05:08:55;2.20;99.90
33077;DHT22;38790;51.964;5.924;2022-12-07T05:11:21;2.10;99.90
33077;DHT22;38790;51.964;5.924;2022-12-07T05:14:20;2.00;99.90
33077;DHT22;38790;51.964;5.924;2022-12-07T05:16:48;1.90;99.90
33077;DHT22;38790;51.964;5.924;2022-12-07T05:19:15;1.90;99.90
33077;DHT22;38790;51.964;5.924;2022-12-07T05:21:41;1.90;99.90
33077;DHT22;38790;51.964;5.924;2022-12-07T05:24:11;1.80;99.90
33077;DHT22;38790;51.964;5.924;2022-12-07T05:26:37;1.80;99.90
33077;DHT22;38790;51.964;5.924;2022-12-07T05:29:03;1.80;99.90
33077;DHT22;38790;51.964;5.924;2022-12-07T05:31:30;1.70;99.90
33077;DHT22;38790;51.964;5.924;2022-12-07T05:33:57;1.70;99.90
33077;DHT22;38790;51.964;5.924;2022-12-07T05:36:23;1.70;99.90
33077;DHT22;38790;51.964;5.924;2022-12-07T05:38:49;1.70;99.90
33077;DHT22;38790;51.964;5.924;2022-12-07T05:41:17;1.70;99.90
33077;DHT22;38790;51.964;5.924;2022-12-07T05:44:03;1.70;99.90
33077;DHT22;38790;51.964;5.924;2022-12-07T05:46:29;1.80;99.90
33077;DHT22;38790;51.964;5.924;2022-12-07T05:48:55;1.80;99.90
33077;DHT22;38790;51.964;5.924;2022-12-07T05:51:21;1.80;99.90
33077;DHT22;38790;51.964;5.924;2022-12-07T05:53:47;1.80;99.90
33077;DHT22;38790;51.964;5.924;2022-12-07T05:56:13;1.80;99.90
33077;DHT22;38790;51.964;5.924;2022-12-07T05:58:39;1.70;99.90
33077;DHT22;38790;51.964;5.924;2022-12-07T06:01:24;1.80;99.90
33077;DHT22;38790;51.964;5.924;2022-12-07T06:03:50;1.70;99.90
33077;DHT22;38790;51.964;5.924;2022-12-07T06:06:17;1.70;99.90
33077;DHT22;38790;51.964;5.924;2022-12-07T06:08:43;1.60;99.90
33077;DHT22;38790;51.964;5.924;2022-12-07T06:11:09;1.60;99.90
33077;DHT22;38790;51.964;5.924;2022-12-07T06:13:53;1.60;99.90
33077;DHT22;38790;51.964;5.924;2022-12-07T06:16:19;1.60;99.90
33077;DHT22;38790;51.964;5.924;2022-12-07T06:18:45;1.60;99.90
33077;DHT22;38790;51.964;5.924;2022-12-07T06:21:12;1.60;99.90
33077;DHT22;38790;51.964;5.924;2022-12-07T06:23:38;1.50;99.90
33077;DHT22;38790;51.964;5.924;2022-12-07T06:26:04;1.50;99.90
33077;DHT22;38790;51.964;5.924;2022-12-07T06:28:30;1.60;99.90
33077;DHT22;38790;51.964;5.924;2022-12-07T06:31:00;1.60;99.90
33077;DHT22;38790;51.964;5.924;2022-12-07T06:33:27;1.60;99.90
33077;DHT22;38790;51.964;5.924;2022-12-07T06:35:54;1.60;99.90
33077;DHT22;38790;51.964;5.924;2022-12-07T06:38:21;1.60;99.90
33077;DHT22;38790;51.964;5.924;2022-12-07T06:40:47;1.60;99.90
33077;DHT22;38790;51.964;5.924;2022-12-07T06:43:14;1.60;99.90
33077;DHT22;38790;51.964;5.924;2022-12-07T06:45:41;1.60;99.90
33077;DHT22;38790;51.964;5.924;2022-12-07T06:48:07;1.60;99.90
33077;DHT22;38790;51.964;5.924;2022-12-07T06:50:33;1.60;99.90
33077;DHT22;38790;51.964;5.924;2022-12-07T06:52:59;1.50;99.90
33077;DHT22;38790;51.964;5.924;2022-12-07T06:55:26;1.50;99.90
33077;DHT22;38790;51.964;5.924;2022-12-07T06:57:52;1.50;99.90
33077;DHT22;38790;51.964;5.924;2022-12-07T07:00:18;1.50;99.90
33077;DHT22;38790;51.964;5.924;2022-12-07T07:02:44;1.50;99.90
33077;DHT22;38790;51.964;5.924;2022-12-07T07:05:10;1.50;99.90
33077;DHT22;38790;51.964;5.924;2022-12-07T07:07:37;1.50;99.90
33077;DHT22;38790;51.964;5.924;2022-12-07T07:10:03;1.50;99.90
33077;DHT22;38790;51.964;5.924;2022-12-07T07:12:29;1.50;99.90
33077;DHT22;38790;51.964;5.924;2022-12-07T07:14:56;1.50;99.90
33077;DHT22;38790;51.964;5.924;2022-12-07T07:17:22;1.50;99.90
33077;DHT22;38790;51.964;5.924;2022-12-07T07:19:48;1.50;99.90
33077;DHT22;38790;51.964;5.924;2022-12-07T07:22:14;1.50;99.90
33077;DHT22;38790;51.964;5.924;2022-12-07T07:24:40;1.50;99.90
33077;DHT22;38790;51.964;5.924;2022-12-07T07:27:07;1.50;99.90
33077;DHT22;38790;51.964;5.924;2022-12-07T07:29:33;1.60;99.90
33077;DHT22;38790;51.964;5.924;2022-12-07T07:32:00;1.60;99.90
33077;DHT22;38790;51.964;5.924;2022-12-07T07:34:26;1.60;99.90
33077;DHT22;38790;51.964;5.924;2022-12-07T07:36:53;1.50;99.90
33077;DHT22;38790;51.964;5.924;2022-12-07T07:39:19;1.50;99.90
33077;DHT22;38790;51.964;5.924;2022-12-07T07:41:46;1.50;99.90
33077;DHT22;38790;51.964;5.924;2022-12-07T07:44:12;1.50;99.90
33077;DHT22;38790;51.964;5.924;2022-12-07T07:46:38;1.50;99.90
33077;DHT22;38790;51.964;5.924;2022-12-07T07:49:05;1.50;99.90
33077;DHT22;38790;51.964;5.924;2022-12-07T07:51:31;1.50;99.90
33077;DHT22;38790;51.964;5.924;2022-12-07T07:53:57;1.50;99.90
33077;DHT22;38790;51.964;5.924;2022-12-07T07:56:23;1.50;99.90
33077;DHT22;38790;51.964;5.924;2022-12-07T07:58:52;1.60;99.90
33077;DHT22;38790;51.964;5.924;2022-12-07T08:01:18;1.60;99.90
33077;DHT22;38790;51.964;5.924;2022-12-07T08:03:49;1.60;99.90
33077;DHT22;38790;51.964;5.924;2022-12-07T08:06:15;1.50;99.90
33077;DHT22;38790;51.964;5.924;2022-12-07T08:08:41;1.50;99.90
33077;DHT22;38790;51.964;5.924;2022-12-07T08:11:08;1.60;99.90
33077;DHT22;38790;51.964;5.924;2022-12-07T08:13:35;1.60;99.90
33077;DHT22;38790;51.964;5.924;2022-12-07T08:16:09;1.60;99.90
33077;DHT22;38790;51.964;5.924;2022-12-07T08:18:37;1.70;99.90
33077;DHT22;38790;51.964;5.924;2022-12-07T08:21:05;1.70;99.90
33077;DHT22;38790;51.964;5.924;2022-12-07T08:23:32;1.80;99.90
33077;DHT22;38790;51.964;5.924;2022-12-07T08:26:05;1.90;99.90
33077;DHT22;38790;51.964;5.924;2022-12-07T08:28:32;2.10;99.90
33077;DHT22;38790;51.964;5.924;2022-12-07T08:31:06;2.20;99.90
33077;DHT22;38790;51.964;5.924;2022-12-07T08:33:33;2.40;99.90
33077;DHT22;38790;51.964;5.924;2022-12-07T08:36:01;2.40;99.90
33077;DHT22;38790;51.964;5.924;2022-12-07T08:38:28;2.40;99.90
33077;DHT22;38790;51.964;5.924;2022-12-07T08:40:55;2.50;99.90
33077;DHT22;38790;51.964;5.924;2022-12-07T08:43:22;2.50;99.90
33077;DHT22;38790;51.964;5.924;2022-12-07T08:45:50;2.50;99.90
33077;DHT22;38790;51.964;5.924;2022-12-07T08:48:18;2.50;99.90
33077;DHT22;38790;51.964;5.924;2022-12-07T08:50:48;2.50;99.90
33077;DHT22;38790;51.964;5.924;2022-12-07T08:53:14;2.50;99.90
33077;DHT22;38790;51.964;5.924;2022-12-07T08:55:41;2.50;99.90
33077;DHT22;38790;51.964;5.924;2022-12-07T08:58:07;2.40;99.90
33077;DHT22;38790;51.964;5.924;2022-12-07T09:00:33;2.40;99.90
33077;DHT22;38790;51.964;5.924;2022-12-07T09:02:59;2.40;99.90
33077;DHT22;38790;51.964;5.924;2022-12-07T09:05:25;2.40;99.90
33077;DHT22;38790;51.964;5.924;2022-12-07T09:07:55;2.30;99.90
33077;DHT22;38790;51.964;5.924;2022-12-07T09:10:22;2.40;99.90
33077;DHT22;38790;51.964;5.924;2022-12-07T09:12:49;2.50;99.90
33077;DHT22;38790;51.964;5.924;2022-12-07T09:15:15;2.70;99.90
33077;DHT22;38790;51.964;5.924;2022-12-07T09:17:41;2.90;99.90
33077;DHT22;38790;51.964;5.924;2022-12-07T09:20:08;3.10;99.90
33077;DHT22;38790;51.964;5.924;2022-12-07T09:22:34;3.10;99.90
33077;DHT22;38790;51.964;5.924;2022-12-07T09:25:01;3.10;99.90
33077;DHT22;38790;51.964;5.924;2022-12-07T09:27:28;3.10;99.90
33077;DHT22;38790;51.964;5.924;2022-12-07T09:29:54;3.20;99.90
33077;DHT22;38790;51.964;5.924;2022-12-07T09:32:20;3.30;99.90
33077;DHT22;38790;51.964;5.924;2022-12-07T09:34:46;3.40;99.90
33077;DHT22;38790;51.964;5.924;2022-12-07T09:37:12;3.50;99.90
33077;DHT22;38790;51.964;5.924;2022-12-07T09:39:39;3.50;99.90
33077;DHT22;38790;51.964;5.924;2022-12-07T09:42:06;3.60;99.90
33077;DHT22;38790;51.964;5.924;2022-12-07T09:44:33;3.70;99.90
33077;DHT22;38790;51.964;5.924;2022-12-07T09:47:01;3.80;99.90
33077;DHT22;38790;51.964;5.924;2022-12-07T09:49:32;3.90;99.90
33077;DHT22;38790;51.964;5.924;2022-12-07T09:52:16;4.00;99.90
33077;DHT22;38790;51.964;5.924;2022-12-07T09:54:47;4.00;99.90
33077;DHT22;38790;51.964;5.924;2022-12-07T09:57:14;4.10;99.90
33077;DHT22;38790;51.964;5.924;2022-12-07T09:59:41;4.10;99.90
33077;DHT22;38790;51.964;5.924;2022-12-07T10:05:01;4.00;99.90
33077;DHT22;38790;51.964;5.924;2022-12-07T10:07:29;4.10;99.90
33077;DHT22;38790;51.964;5.924;2022-12-07T10:09:55;4.20;99.90
33077;DHT22;38790;51.964;5.924;2022-12-07T10:12:21;4.20;99.90
33077;DHT22;38790;51.964;5.924;2022-12-07T10:14:59;4.30;99.90
33077;DHT22;38790;51.964;5.924;2022-12-07T10:17:37;4.30;99.90
33077;DHT22;38790;51.964;5.924;2022-12-07T10:20:23;4.40;99.90
33077;DHT22;38790;51.964;5.924;2022-12-07T10:23:01;4.40;99.90
33077;DHT22;38790;51.964;5.924;2022-12-07T10:25:34;4.30;99.90
33077;DHT22;38790;51.964;5.924;2022-12-07T10:31:02;4.50;99.90
33077;DHT22;38790;51.964;5.924;2022-12-07T10:33:38;4.60;99.90
33077;DHT22;38790;51.964;5.924;2022-12-07T10:38:47;4.50;99.90
33077;DHT22;38790;51.964;5.924;2022-12-07T10:41:14;4.40;99.90
33077;DHT22;38790;51.964;5.924;2022-12-07T10:43:48;4.30;99.90
33077;DHT22;38790;51.964;5.924;2022-12-07T10:46:25;4.20;99.90
33077;DHT22;38790;51.964;5.924;2022-12-07T10:54:12;4.70;99.90
33077;DHT22;38790;51.964;5.924;2022-12-07T10:56:46;4.90;99.90
33077;DHT22;38790;51.964;5.924;2022-12-07T10:59:42;5.20;99.90
33077;DHT22;38790;51.964;5.924;2022-12-07T11:05:18;5.50;99.90
33077;DHT22;38790;51.964;5.924;2022-12-07T11:16:41;5.10;99.90
33077;DHT22;38790;51.964;5.924;2022-12-07T11:22:06;5.00;99.90
33077;DHT22;38790;51.964;5.924;2022-12-07T11:27:32;5.00;99.90
33077;DHT22;38790;51.964;5.924;2022-12-07T11:30:08;4.90;99.90
33077;DHT22;38790;51.964;5.924;2022-12-07T11:38:49;5.40;99.90
33077;DHT22;38790;51.964;5.924;2022-12-07T11:41:22;5.50;99.90
33077;DHT22;38790;51.964;5.924;2022-12-07T11:43:54;5.50;99.90
33077;DHT22;38790;51.964;5.924;2022-12-07T11:46:25;5.60;99.90
33077;DHT22;38790;51.964;5.924;2022-12-07T11:49:01;5.60;99.90
33077;DHT22;38790;51.964;5.924;2022-12-07T11:51:28;5.60;99.90
33077;DHT22;38790;51.964;5.924;2022-12-07T11:54:05;5.50;99.90
33077;DHT22;38790;51.964;5.924;2022-12-07T11:56:37;5.40;99.90
33077;DHT22;38790;51.964;5.924;2022-12-07T11:59:11;5.40;99.90
33077;DHT22;38790;51.964;5.924;2022-12-07T12:06:42;5.50;99.90
33077;DHT22;38790;51.964;5.924;2022-12-07T12:20:29;5.40;99.90
33077;DHT22;38790;51.964;5.924;2022-12-07T12:23:19;5.40;99.90
33077;DHT22;38790;51.964;5.924;2022-12-07T12:25:59;5.50;99.90
33077;DHT22;38790;51.964;5.924;2022-12-07T12:28:35;5.50;99.90
33077;DHT22;38790;51.964;5.924;2022-12-07T12:33:58;5.70;99.90
33077;DHT22;38790;51.964;5.924;2022-12-07T12:41:50;5.90;99.90
33077;DHT22;38790;51.964;5.924;2022-12-07T12:46:55;6.20;99.90
33077;DHT22;38790;51.964;5.924;2022-12-07T12:59:39;7.00;99.90
33077;DHT22;38790;51.964;5.924;2022-12-07T13:18:02;6.00;99.90
33077;DHT22;38790;51.964;5.924;2022-12-07T13:23:10;6.00;99.90
33077;DHT22;38790;51.964;5.924;2022-12-07T13:28:37;6.00;99.90
33077;DHT22;38790;51.964;5.924;2022-12-07T13:33:53;6.00;99.90
33077;DHT22;38790;51.964;5.924;2022-12-07T13:36:25;6.00;99.90
33077;DHT22;38790;51.964;5.924;2022-12-07T13:38:59;6.10;99.90
33077;DHT22;38790;51.964;5.924;2022-12-07T13:41:28;6.10;99.90
33077;DHT22;38790;51.964;5.924;2022-12-07T13:44:12;6.20;99.90
33077;DHT22;38790;51.964;5.924;2022-12-07T13:46:44;6.20;99.90
33077;DHT22;38790;51.964;5.924;2022-12-07T13:49:31;6.20;99.90
33077;DHT22;38790;51.964;5.924;2022-12-07T13:54:59;6.30;99.90
33077;DHT22;38790;51.964;5.924;2022-12-07T13:57:28;6.30;99.90
33077;DHT22;38790;51.964;5.924;2022-12-07T13:59:57;6.40;99.90
33077;DHT22;38790;51.964;5.924;2022-12-07T14:02:30;6.50;99.90
33077;DHT22;38790;51.964;5.924;2022-12-07T14:05:23;6.60;99.90
33077;DHT22;38790;51.964;5.924;2022-12-07T14:08:43;6.70;99.90
33077;DHT22;38790;51.964;5.924;2022-12-07T14:13:50;6.60;99.90
33077;DHT22;38790;51.964;5.924;2022-12-07T14:16:28;6.50;99.90
33077;DHT22;38790;51.964;5.924;2022-12-07T14:18:57;6.30;99.90
33077;DHT22;38790;51.964;5.924;2022-12-07T14:21:27;6.20;99.90
33077;DHT22;38790;51.964;5.924;2022-12-07T14:24:19;6.00;99.90
33077;DHT22;38790;51.964;5.924;2022-12-07T14:26:48;5.90;99.90
33077;DHT22;38790;51.964;5.924;2022-12-07T14:31:53;5.50;99.90
33077;DHT22;38790;51.964;5.924;2022-12-07T14:34:21;5.30;99.90
33077;DHT22;38790;51.964;5.924;2022-12-07T14:36:48;5.20;99.90
33077;DHT22;38790;51.964;5.924;2022-12-07T14:39:14;5.10;99.90
33077;DHT22;38790;51.964;5.924;2022-12-07T14:41:40;5.00;99.90
33077;DHT22;38790;51.964;5.924;2022-12-07T14:44:22;4.90;99.90
33077;DHT22;38790;51.964;5.924;2022-12-07T14:46:49;4.90;99.90
33077;DHT22;38790;51.964;5.924;2022-12-07T14:49:16;4.80;99.90
33077;DHT22;38790;51.964;5.924;2022-12-07T14:51:44;4.80;99.90
33077;DHT22;38790;51.964;5.924;2022-12-07T14:54:20;4.80;99.90
33077;DHT22;38790;51.964;5.924;2022-12-07T14:56:47;4.90;99.90
33077;DHT22;38790;51.964;5.924;2022-12-07T14:59:17;4.80;99.90
33077;DHT22;38790;51.964;5.924;2022-12-07T15:01:44;4.80;99.90
33077;DHT22;38790;51.964;5.924;2022-12-07T15:04:11;4.80;99.90
33077;DHT22;38790;51.964;5.924;2022-12-07T15:06:37;4.80;99.90
33077;DHT22;38790;51.964;5.924;2022-12-07T15:09:04;4.90;99.90
33077;DHT22;38790;51.964;5.924;2022-12-07T15:11:30;4.90;99.90
33077;DHT22;38790;51.964;5.924;2022-12-07T15:13:56;5.00;99.90
33077;DHT22;38790;51.964;5.924;2022-12-07T15:16:36;5.10;99.90
33077;DHT22;38790;51.964;5.924;2022-12-07T15:19:02;5.10;99.90
33077;DHT22;38790;51.964;5.924;2022-12-07T15:21:28;5.10;99.90
33077;DHT22;38790;51.964;5.924;2022-12-07T15:23:55;5.10;99.90
33077;DHT22;38790;51.964;5.924;2022-12-07T15:26:21;5.10;99.90
33077;DHT22;38790;51.964;5.924;2022-12-07T15:28:47;5.10;99.90
33077;DHT22;38790;51.964;5.924;2022-12-07T15:31:15;5.10;99.90
33077;DHT22;38790;51.964;5.924;2022-12-07T15:33:42;5.10;99.90
33077;DHT22;38790;51.964;5.924;2022-12-07T15:36:19;5.00;99.90
33077;DHT22;38790;51.964;5.924;2022-12-07T15:38:46;4.90;99.90
33077;DHT22;38790;51.964;5.924;2022-12-07T15:41:12;4.90;99.90
33077;DHT22;38790;51.964;5.924;2022-12-07T15:43:38;4.90;99.90
33077;DHT22;38790;51.964;5.924;2022-12-07T15:46:28;4.80;99.90
33077;DHT22;38790;51.964;5.924;2022-12-07T15:48:54;4.80;99.90
33077;DHT22;38790;51.964;5.924;2022-12-07T15:51:20;4.80;99.90
33077;DHT22;38790;51.964;5.924;2022-12-07T15:53:46;4.80;99.90
33077;DHT22;38790;51.964;5.924;2022-12-07T15:56:12;4.80;99.90
33077;DHT22;38790;51.964;5.924;2022-12-07T15:58:39;4.70;99.90
33077;DHT22;38790;51.964;5.924;2022-12-07T16:01:16;4.70;99.90
33077;DHT22;38790;51.964;5.924;2022-12-07T16:03:44;4.70;99.90
33077;DHT22;38790;51.964;5.924;2022-12-07T16:06:10;4.70;99.90
33077;DHT22;38790;51.964;5.924;2022-12-07T16:08:37;4.70;99.90
33077;DHT22;38790;51.964;5.924;2022-12-07T16:11:07;4.70;99.90
33077;DHT22;38790;51.964;5.924;2022-12-07T16:13:34;4.70;99.90
33077;DHT22;38790;51.964;5.924;2022-12-07T16:16:06;4.70;99.90
33077;DHT22;38790;51.964;5.924;2022-12-07T16:18:33;4.70;99.90
33077;DHT22;38790;51.964;5.924;2022-12-07T16:20:59;4.70;99.90
33077;DHT22;38790;51.964;5.924;2022-12-07T16:23:26;4.70;99.90
33077;DHT22;38790;51.964;5.924;2022-12-07T16:25:52;4.70;99.90
33077;DHT22;38790;51.964;5.924;2022-12-07T16:28:18;4.70;99.90
33077;DHT22;38790;51.964;5.924;2022-12-07T16:30:45;4.70;99.90
33077;DHT22;38790;51.964;5.924;2022-12-07T16:33:11;4.70;99.90
33077;DHT22;38790;51.964;5.924;2022-12-07T16:35:40;4.60;99.90
33077;DHT22;38790;51.964;5.924;2022-12-07T16:38:07;4.60;99.90
33077;DHT22;38790;51.964;5.924;2022-12-07T16:40:33;4.60;99.90
33077;DHT22;38790;51.964;5.924;2022-12-07T16:42:59;4.60;99.90
33077;DHT22;38790;51.964;5.924;2022-12-07T16:45:25;4.50;99.90
33077;DHT22;38790;51.964;5.924;2022-12-07T16:47:51;4.50;99.90
33077;DHT22;38790;51.964;5.924;2022-12-07T16:50:18;4.40;99.90
33077;DHT22;38790;51.964;5.924;2022-12-07T16:52:44;4.30;99.90
33077;DHT22;38790;51.964;5.924;2022-12-07T16:55:10;4.30;99.90
33077;DHT22;38790;51.964;5.924;2022-12-07T16:57:36;4.30;99.90
33077;DHT22;38790;51.964;5.924;2022-12-07T17:00:04;4.20;99.90
33077;DHT22;38790;51.964;5.924;2022-12-07T17:02:30;4.20;99.90
33077;DHT22;38790;51.964;5.924;2022-12-07T17:04:56;4.20;99.90
33077;DHT22;38790;51.964;5.924;2022-12-07T17:07:22;4.20;99.90
33077;DHT22;38790;51.964;5.924;2022-12-07T17:09:48;4.20;99.90
33077;DHT22;38790;51.964;5.924;2022-12-07T17:12:14;4.20;99.90
33077;DHT22;38790;51.964;5.924;2022-12-07T17:14:40;4.20;99.90
33077;DHT22;38790;51.964;5.924;2022-12-07T17:17:39;4.20;99.90
33077;DHT22;38790;51.964;5.924;2022-12-07T17:20:06;4.20;99.90
33077;DHT22;38790;51.964;5.924;2022-12-07T17:22:32;4.20;99.90
33077;DHT22;38790;51.964;5.924;2022-12-07T17:24:58;4.10;99.90
33077;DHT22;38790;51.964;5.924;2022-12-07T17:27:24;4.10;99.90
33077;DHT22;38790;51.964;5.924;2022-12-07T17:29:50;4.10;99.90
33077;DHT22;38790;51.964;5.924;2022-12-07T17:32:16;4.10;99.90
33077;DHT22;38790;51.964;5.924;2022-12-07T17:34:43;4.00;99.90
33077;DHT22;38790;51.964;5.924;2022-12-07T17:37:09;4.00;99.90
33077;DHT22;38790;51.964;5.924;2022-12-07T17:39:35;4.00;99.90
33077;DHT22;38790;51.964;5.924;2022-12-07T17:42:01;4.00;99.90
33077;DHT22;38790;51.964;5.924;2022-12-07T17:44:46;4.00;99.90
33077;DHT22;38790;51.964;5.924;2022-12-07T17:47:12;4.00;99.90
33077;DHT22;38790;51.964;5.924;2022-12-07T17:49:40;3.90;99.90
33077;DHT22;38790;51.964;5.924;2022-12-07T17:52:07;3.90;99.90
33077;DHT22;38790;51.964;5.924;2022-12-07T17:54:52;3.90;99.90
33077;DHT22;38790;51.964;5.924;2022-12-07T17:57:18;3.90;99.90
33077;DHT22;38790;51.964;5.924;2022-12-07T17:59:44;3.80;99.90
33077;DHT22;38790;51.964;5.924;2022-12-07T18:02:11;3.80;99.90
33077;DHT22;38790;51.964;5.924;2022-12-07T18:04:37;3.80;99.90
33077;DHT22;38790;51.964;5.924;2022-12-07T18:07:03;3.80;99.90
33077;DHT22;38790;51.964;5.924;2022-12-07T18:09:31;3.80;99.90
33077;DHT22;38790;51.964;5.924;2022-12-07T18:11:57;3.80;99.90
33077;DHT22;38790;51.964;5.924;2022-12-07T18:14:24;3.80;99.90
33077;DHT22;38790;51.964;5.924;2022-12-07T18:16:50;3.80;99.90
33077;DHT22;38790;51.964;5.924;2022-12-07T18:19:16;3.70;99.90
33077;DHT22;38790;51.964;5.924;2022-12-07T18:21:43;3.70;99.90
33077;DHT22;38790;51.964;5.924;2022-12-07T18:24:11;3.70;99.90
33077;DHT22;38790;51.964;5.924;2022-12-07T18:26:38;3.70;99.90
33077;DHT22;38790;51.964;5.924;2022-12-07T18:29:06;3.70;99.90
33077;DHT22;38790;51.964;5.924;2022-12-07T18:31:34;3.70;99.90
33077;DHT22;38790;51.964;5.924;2022-12-07T18:34:02;3.70;99.90
33077;DHT22;38790;51.964;5.924;2022-12-07T18:36:30;3.70;99.90
33077;DHT22;38790;51.964;5.924;2022-12-07T18:38:56;3.70;99.90